createdAt,value
2018-07-22T00:02:25.185Z,99542.00
2018-07-22T00:04:54.720Z,99543.00
2018-07-22T00:07:24.521Z,99541.00
2018-07-22T00:09:54.361Z,99542.00
2018-07-22T00:12:24.176Z,99542.00
2018-07-22T00:14:53.645Z,99538.00
2018-07-22T00:17:23.156Z,99537.00
2018-07-22T00:19:52.754Z,99537.00
2018-07-22T00:22:22.329Z,99534.00
2018-07-22T00:24:52.194Z,99527.00
2018-07-22T00:27:23.134Z,99532.00
2018-07-22T00:29:52.784Z,99532.00
2018-07-22T00:32:22.814Z,99530.00
2018-07-22T00:34:52.673Z,99536.00
2018-07-22T00:37:22.288Z,99534.00
2018-07-22T00:39:51.847Z,99539.00
2018-07-22T00:42:21.713Z,99541.00
2018-07-22T00:44:51.200Z,99540.00
2018-07-22T00:47:20.743Z,99536.00
2018-07-22T00:49:50.557Z,99538.00
2018-07-22T00:52:20.060Z,99540.00
2018-07-22T00:54:49.958Z,99537.00
2018-07-22T00:57:19.973Z,99537.00
2018-07-22T00:59:50.023Z,99541.00
2018-07-22T01:02:19.687Z,99537.00
2018-07-22T01:04:49.213Z,99539.00
2018-07-22T01:07:19.109Z,99539.00
2018-07-22T01:09:48.707Z,99533.00
2018-07-22T01:12:18.218Z,99533.00
2018-07-22T01:14:48.092Z,99529.00
2018-07-22T01:17:17.655Z,99526.00
2018-07-22T01:19:47.144Z,99530.00
2018-07-22T01:22:16.815Z,99530.00
2018-07-22T01:24:46.417Z,99535.00
2018-07-22T01:27:15.947Z,99533.00
2018-07-22T01:29:45.511Z,99534.00
2018-07-22T01:32:15.592Z,99533.00
2018-07-22T01:34:45.137Z,99528.00
2018-07-22T01:37:14.961Z,99532.00
2018-07-22T01:39:44.476Z,99538.00
2018-07-22T01:42:13.963Z,99545.00
2018-07-22T01:44:43.609Z,99553.00
2018-07-22T01:47:13.257Z,99555.00
2018-07-22T01:49:42.754Z,99549.00
2018-07-22T01:52:12.887Z,99548.00
2018-07-22T01:54:42.991Z,99548.00
2018-07-22T01:57:12.839Z,99552.00
2018-07-22T01:59:42.850Z,99559.00
2018-07-22T02:02:12.430Z,99556.00
2018-07-22T02:04:42.025Z,99551.00
2018-07-22T02:07:11.871Z,99547.00
2018-07-22T02:09:41.536Z,99552.00
2018-07-22T02:12:11.125Z,99551.00
2018-07-22T02:14:40.732Z,99544.00
2018-07-22T02:17:10.301Z,99544.00
2018-07-22T02:19:40.389Z,99548.00
2018-07-22T02:22:10.663Z,99543.00
2018-07-22T02:24:40.210Z,99540.00
2018-07-22T02:27:09.860Z,99543.00
2018-07-22T02:29:39.588Z,99536.00
2018-07-22T02:34:55.251Z,99538.00
2018-07-22T02:37:24.787Z,99539.00
2018-07-22T02:39:54.372Z,99534.00
2018-07-22T02:42:24.087Z,99535.00
2018-07-22T02:44:53.607Z,99535.00
2018-07-22T02:47:23.733Z,99532.00
2018-07-22T02:49:53.527Z,99532.00
2018-07-22T02:52:23.337Z,99535.00
2018-07-22T02:54:52.873Z,99533.00
2018-07-22T02:57:22.429Z,99527.00
2018-07-22T02:59:52.428Z,99522.00
2018-07-22T03:02:22.967Z,99528.00
2018-07-22T03:04:52.327Z,99532.00
2018-07-22T03:07:21.878Z,99532.00
2018-07-22T03:09:51.897Z,99536.00
2018-07-22T03:12:21.418Z,99538.00
2018-07-22T03:14:51.552Z,99538.00
2018-07-22T03:17:21.137Z,99535.00
2018-07-22T03:19:50.977Z,99538.00
2018-07-22T03:22:20.463Z,99533.00
2018-07-22T03:24:50.262Z,99536.00
2018-07-22T03:27:20.114Z,99536.00
2018-07-22T03:29:49.926Z,99537.00
2018-07-22T03:32:19.450Z,99540.00
2018-07-22T03:34:49.051Z,99543.00
2018-07-22T03:37:18.631Z,99538.00
2018-07-22T03:39:48.128Z,99539.00
2018-07-22T03:42:18.111Z,99543.00
2018-07-22T03:44:48.049Z,99545.00
2018-07-22T03:47:17.953Z,99549.00
2018-07-22T03:49:47.434Z,99553.00
2018-07-22T03:52:17.660Z,99554.00
2018-07-22T03:54:47.236Z,99555.00
2018-07-22T03:57:17.727Z,99557.00
2018-07-22T03:59:47.292Z,99557.00
2018-07-22T04:02:16.841Z,99558.00
2018-07-22T04:04:46.327Z,99559.00
2018-07-22T04:07:15.956Z,99562.00
2018-07-22T04:09:45.915Z,99565.00
2018-07-22T04:12:15.540Z,99559.00
2018-07-22T04:14:45.428Z,99556.00
2018-07-22T04:17:15.555Z,99565.00
2018-07-22T04:19:45.112Z,99565.00
2018-07-22T04:22:14.353Z,99563.00
2018-07-22T04:24:44.486Z,99560.00
2018-07-22T04:27:14.311Z,99561.00
2018-07-22T04:29:43.816Z,99567.00
2018-07-22T04:32:13.382Z,99563.00
2018-07-22T04:34:42.934Z,99560.00
2018-07-22T04:37:12.952Z,99567.00
2018-07-22T04:39:42.784Z,99572.00
2018-07-22T04:42:12.888Z,99577.00
2018-07-22T04:44:42.748Z,99584.00
2018-07-22T04:47:12.409Z,99578.00
2018-07-22T04:49:41.985Z,99583.00
2018-07-22T04:52:11.564Z,99580.00
2018-07-22T04:54:41.395Z,99578.00
2018-07-22T04:57:10.953Z,99582.00
2018-07-22T04:59:40.517Z,99580.00
2018-07-22T05:02:10.083Z,99585.00
2018-07-22T05:04:39.762Z,99587.00
2018-07-22T05:07:09.581Z,99584.00
2018-07-22T05:09:39.783Z,99590.00
2018-07-22T05:12:09.602Z,99587.00
2018-07-22T05:14:39.220Z,99587.00
2018-07-22T05:17:08.750Z,99583.00
2018-07-22T05:19:38.469Z,99586.00
2018-07-22T05:22:08.579Z,99585.00
2018-07-22T05:24:38.240Z,99585.00
2018-07-22T05:27:07.988Z,99590.00
2018-07-22T05:29:37.787Z,99591.00
2018-07-22T05:32:07.944Z,99593.00
2018-07-22T05:34:37.456Z,99597.00
2018-07-22T05:37:07.641Z,99595.00
2018-07-22T05:39:37.383Z,99604.00
2018-07-22T05:42:07.248Z,99606.00
2018-07-22T05:44:36.854Z,99602.00
2018-07-22T05:47:06.815Z,99606.00
2018-07-22T05:49:36.560Z,99601.00
2018-07-22T05:52:06.720Z,99604.00
2018-07-22T05:54:37.006Z,99604.00
2018-07-22T05:57:06.679Z,99600.00
2018-07-22T05:59:36.781Z,99607.00
2018-07-22T06:02:07.927Z,99613.00
2018-07-22T06:04:44.615Z,99617.00
2018-07-22T06:07:25.314Z,99617.00
2018-07-22T06:09:58.537Z,99618.00
2018-07-22T06:12:31.507Z,99630.00
2018-07-22T06:15:01.215Z,99635.00
2018-07-22T06:17:31.720Z,99639.00
2018-07-22T06:20:10.221Z,99641.00
2018-07-22T06:22:40.034Z,99636.00
2018-07-22T06:25:10.377Z,99635.00
2018-07-22T06:27:41.293Z,99638.00
2018-07-22T06:30:11.354Z,99632.00
2018-07-22T06:32:41.934Z,99639.00
2018-07-22T06:35:12.236Z,99639.00
2018-07-22T06:37:41.913Z,99639.00
2018-07-22T06:40:11.597Z,99635.00
2018-07-22T06:42:42.312Z,99638.00
2018-07-22T06:45:12.246Z,99642.00
2018-07-22T06:47:42.651Z,99637.00
2018-07-22T06:50:12.382Z,99639.00
2018-07-22T06:52:42.088Z,99645.00
2018-07-22T06:55:11.853Z,99641.00
2018-07-22T06:57:42.510Z,99638.00
2018-07-22T07:00:12.908Z,99643.00
2018-07-22T07:02:42.392Z,99646.00
2018-07-22T07:05:12.800Z,99652.00
2018-07-22T07:07:42.262Z,99653.00
2018-07-22T07:10:11.718Z,99656.00
2018-07-22T07:12:41.832Z,99656.00
2018-07-22T07:15:11.689Z,99660.00
2018-07-22T07:17:41.341Z,99664.00
2018-07-22T07:20:11.207Z,99669.00
2018-07-22T07:22:41.116Z,99670.00
2018-07-22T07:25:11.129Z,99670.00
2018-07-22T07:27:41.023Z,99664.00
2018-07-22T07:30:10.565Z,99665.00
2018-07-22T07:32:40.264Z,99664.00
2018-07-22T07:35:10.199Z,99661.00
2018-07-22T07:37:40.254Z,99663.00
2018-07-22T07:40:09.889Z,99660.00
2018-07-22T07:42:39.451Z,99657.00
2018-07-22T07:45:08.916Z,99656.00
2018-07-22T07:47:38.896Z,99654.00
2018-07-22T07:50:08.367Z,99656.00
2018-07-22T07:52:38.173Z,99656.00
2018-07-22T07:55:08.158Z,99661.00
2018-07-22T07:57:38.170Z,99661.00
2018-07-22T08:00:08.590Z,99660.00
2018-07-22T08:02:38.120Z,99664.00
2018-07-22T08:05:10.460Z,99664.00
2018-07-22T08:07:52.527Z,99673.00
2018-07-22T08:10:22.836Z,99665.00
2018-07-22T08:12:52.449Z,99672.00
2018-07-22T08:15:22.140Z,99671.00
2018-07-22T08:17:52.843Z,99671.00
2018-07-22T08:20:22.578Z,99671.00
2018-07-22T08:22:52.090Z,99675.00
2018-07-22T08:25:22.621Z,99675.00
2018-07-22T08:27:52.355Z,99678.00
2018-07-22T08:30:22.053Z,99674.00
2018-07-22T08:32:52.246Z,99674.00
2018-07-22T08:35:22.746Z,99678.00
2018-07-22T08:37:55.952Z,99671.00
2018-07-22T08:40:31.193Z,99674.00
2018-07-22T08:43:09.096Z,99674.00
2018-07-22T08:45:38.256Z,99672.00
2018-07-22T08:48:08.324Z,99670.00
2018-07-22T08:50:37.960Z,99670.00
2018-07-22T08:53:07.652Z,99673.00
2018-07-22T08:55:37.193Z,99675.00
2018-07-22T08:58:07.162Z,99672.00
2018-07-22T09:00:40.314Z,99670.00
2018-07-22T09:03:09.962Z,99669.00
2018-07-22T09:05:39.660Z,99667.00
2018-07-22T09:08:09.330Z,99669.00
2018-07-22T09:10:38.949Z,99673.00
2018-07-22T09:13:08.486Z,99675.00
2018-07-22T09:15:38.105Z,99678.00
2018-07-22T09:18:07.948Z,99681.00
2018-07-22T09:20:37.408Z,99681.00
2018-07-22T09:23:06.923Z,99677.00
2018-07-22T09:25:36.565Z,99679.00
2018-07-22T09:28:06.122Z,99680.00
2018-07-22T09:30:35.765Z,99685.00
2018-07-22T09:33:05.333Z,99685.00
2018-07-22T09:35:34.819Z,99686.00
2018-07-22T09:38:04.398Z,99689.00
2018-07-22T09:40:34.192Z,99689.00
2018-07-22T09:43:04.046Z,99687.00
2018-07-22T09:45:33.657Z,99687.00
2018-07-22T09:48:03.214Z,99686.00
2018-07-22T09:50:32.680Z,99691.00
2018-07-22T09:53:02.205Z,99684.00
2018-07-22T09:55:31.891Z,99684.00
2018-07-22T09:58:01.406Z,99690.00
2018-07-22T10:00:36.190Z,99687.00
2018-07-22T10:03:06.545Z,99688.00
2018-07-22T10:05:36.001Z,99691.00
2018-07-22T10:08:06.002Z,99681.00
2018-07-22T10:10:36.289Z,99681.00
2018-07-22T10:13:05.957Z,99672.00
2018-07-22T10:15:35.546Z,99677.00
2018-07-22T10:18:05.334Z,99680.00
2018-07-22T10:20:36.531Z,99681.00
2018-07-22T10:23:06.059Z,99675.00
2018-07-22T10:25:38.121Z,99674.00
2018-07-22T10:28:07.571Z,99674.00
2018-07-22T10:30:37.058Z,99679.00
2018-07-22T10:33:06.679Z,99672.00
2018-07-22T10:35:36.065Z,99674.00
2018-07-22T10:38:05.599Z,99675.00
2018-07-22T10:40:34.975Z,99672.00
2018-07-22T10:43:08.716Z,99668.00
2018-07-22T10:45:38.119Z,99669.00
2018-07-22T10:48:07.601Z,99669.00
2018-07-22T10:50:37.241Z,99664.00
2018-07-22T10:53:07.097Z,99668.00
2018-07-22T10:55:36.810Z,99665.00
2018-07-22T10:58:06.671Z,99666.00
2018-07-22T11:00:36.631Z,99663.00
2018-07-22T11:03:07.801Z,99660.00
2018-07-22T11:05:37.356Z,99663.00
2018-07-22T11:08:06.927Z,99663.00
2018-07-22T11:10:36.592Z,99659.00
2018-07-22T11:13:06.200Z,99668.00
2018-07-22T11:15:35.783Z,99663.00
2018-07-22T11:18:05.833Z,99665.00
2018-07-22T11:20:35.487Z,99669.00
2018-07-22T11:23:05.568Z,99658.00
2018-07-22T11:25:35.589Z,99656.00
2018-07-22T11:28:05.065Z,99655.00
2018-07-22T11:30:34.632Z,99648.00
2018-07-22T11:33:04.141Z,99651.00
2018-07-22T11:35:34.085Z,99646.00
2018-07-22T11:38:03.604Z,99643.00
2018-07-22T11:40:33.387Z,99639.00
2018-07-22T11:43:02.969Z,99635.00
2018-07-22T11:45:32.524Z,99641.00
2018-07-22T11:48:02.117Z,99637.00
2018-07-22T11:50:31.744Z,99636.00
2018-07-22T11:53:01.296Z,99634.00
2018-07-22T11:55:30.874Z,99633.00
2018-07-22T11:58:00.345Z,99629.00
2018-07-22T12:00:29.905Z,99624.00
2018-07-22T12:02:59.490Z,99627.00
2018-07-22T12:05:29.062Z,99626.00
2018-07-22T12:07:58.566Z,99621.00
2018-07-22T12:10:28.195Z,99614.00
2018-07-22T12:12:57.686Z,99613.00
2018-07-22T12:15:27.182Z,99604.00
2018-07-22T12:17:56.627Z,99603.00
2018-07-22T12:20:26.282Z,99612.00
2018-07-22T12:22:55.775Z,99601.00
2018-07-22T12:25:25.279Z,99598.00
2018-07-22T12:27:54.753Z,99601.00
2018-07-22T12:30:24.342Z,99601.00
2018-07-22T12:32:53.857Z,99591.00
2018-07-22T12:35:23.568Z,99588.00
2018-07-22T12:37:53.137Z,99584.00
2018-07-22T12:40:22.592Z,99588.00
2018-07-22T12:42:52.749Z,99583.00
2018-07-22T12:45:22.219Z,99584.00
2018-07-22T12:47:51.678Z,99581.00
2018-07-22T12:50:21.184Z,99577.00
2018-07-22T12:52:50.637Z,99572.00
2018-07-22T12:55:20.114Z,99566.00
2018-07-22T12:57:49.587Z,99568.00
2018-07-22T13:00:18.989Z,99567.00
2018-07-22T13:02:48.375Z,99563.00
2018-07-22T13:05:17.785Z,99564.00
2018-07-22T13:07:47.188Z,99567.00
2018-07-22T13:10:16.612Z,99571.00
2018-07-22T13:12:45.997Z,99569.00
2018-07-22T13:15:15.414Z,99573.00
2018-07-22T13:17:44.811Z,99577.00
2018-07-22T13:20:14.399Z,99575.00
2018-07-22T13:22:43.793Z,99570.00
2018-07-22T13:25:13.223Z,99573.00
2018-07-22T13:27:42.846Z,99570.00
2018-07-22T13:30:12.226Z,99577.00
2018-07-22T13:32:41.719Z,99571.00
2018-07-22T13:35:11.184Z,99564.00
2018-07-22T13:37:40.699Z,99561.00
2018-07-22T13:40:10.176Z,99562.00
2018-07-22T13:42:39.603Z,99563.00
2018-07-22T13:45:09.148Z,99567.00
2018-07-22T13:47:38.542Z,99570.00
2018-07-22T13:50:07.942Z,99570.00
2018-07-22T13:52:37.348Z,99570.00
2018-07-22T13:55:06.754Z,99570.00
2018-07-22T13:57:36.526Z,99574.00
2018-07-22T14:00:06.124Z,99582.00
2018-07-22T14:02:35.618Z,99594.00
2018-07-22T14:05:04.862Z,99604.00
2018-07-22T14:07:34.435Z,99588.00
2018-07-22T14:10:03.928Z,99591.00
2018-07-22T14:12:33.374Z,99583.00
2018-07-22T14:15:02.809Z,99584.00
2018-07-22T14:17:32.260Z,99584.00
2018-07-22T14:20:02.109Z,99589.00
2018-07-22T14:22:31.683Z,99610.00
2018-07-22T14:25:01.483Z,99621.00
2018-07-22T14:27:31.215Z,99625.00
2018-07-22T14:30:00.699Z,99633.00
2018-07-22T14:32:30.172Z,99637.00
2018-07-22T14:34:59.578Z,99649.00
2018-07-22T14:37:29.148Z,99664.00
2018-07-22T14:39:58.885Z,99666.00
2018-07-22T14:42:28.495Z,99673.00
2018-07-22T14:44:57.963Z,99662.00
2018-07-22T14:47:27.507Z,99666.00
2018-07-22T14:49:57.009Z,99658.00
2018-07-22T14:52:26.455Z,99652.00
2018-07-22T14:54:55.975Z,99650.00
2018-07-22T14:57:25.394Z,99652.00
2018-07-22T14:59:54.829Z,99646.00
2018-07-22T15:02:24.280Z,99643.00
2018-07-22T15:04:57.288Z,99642.00
2018-07-22T15:07:26.892Z,99635.00
2018-07-22T15:09:56.312Z,99638.00
2018-07-22T15:12:25.807Z,99654.00
2018-07-22T15:14:55.212Z,99643.00
2018-07-22T15:17:24.687Z,99650.00
2018-07-22T15:19:54.226Z,99650.00
2018-07-22T15:22:24.080Z,99652.00
2018-07-22T15:24:55.832Z,99648.00
2018-07-22T15:27:28.451Z,99647.00
2018-07-22T15:30:00.094Z,99647.00
2018-07-22T15:32:31.809Z,99651.00
2018-07-22T15:35:01.194Z,99654.00
2018-07-22T15:37:30.624Z,99650.00
2018-07-22T15:40:00.196Z,99653.00
2018-07-22T15:42:29.619Z,99652.00
2018-07-22T15:44:59.452Z,99649.00
2018-07-22T15:47:28.991Z,99646.00
2018-07-22T15:49:58.483Z,99644.00
2018-07-22T15:52:28.266Z,99640.00
2018-07-22T15:54:58.121Z,99641.00
2018-07-22T15:57:27.533Z,99645.00
2018-07-22T15:59:57.037Z,99646.00
2018-07-22T16:02:26.505Z,99644.00
2018-07-22T16:04:55.978Z,99649.00
2018-07-22T16:07:25.398Z,99651.00
2018-07-22T16:09:57.136Z,99651.00
2018-07-22T16:12:28.821Z,99647.00
2018-07-22T16:15:00.446Z,99653.00
2018-07-22T16:17:32.092Z,99644.00
2018-07-22T16:20:03.835Z,99648.00
2018-07-22T16:22:35.570Z,99645.00
2018-07-22T16:25:05.181Z,99650.00
2018-07-22T16:27:34.552Z,99653.00
2018-07-22T16:30:04.239Z,99660.00
2018-07-22T16:32:33.811Z,99659.00
2018-07-22T16:35:03.235Z,99670.00
2018-07-22T16:37:32.684Z,99665.00
2018-07-22T16:40:02.271Z,99665.00
2018-07-22T16:42:31.834Z,99663.00
2018-07-22T16:45:01.364Z,99668.00
2018-07-22T16:47:30.864Z,99662.00
2018-07-22T16:50:00.393Z,99663.00
2018-07-22T16:52:29.824Z,99666.00
2018-07-22T16:54:59.309Z,99667.00
2018-07-22T16:57:28.743Z,99665.00
2018-07-22T16:59:58.229Z,99670.00
2018-07-22T17:02:27.803Z,99669.00
2018-07-22T17:04:57.305Z,99675.00
2018-07-22T17:07:27.030Z,99680.00
2018-07-22T17:09:56.583Z,99673.00
2018-07-22T17:12:25.998Z,99680.00
2018-07-22T17:14:55.444Z,99677.00
2018-07-22T17:17:24.829Z,99674.00
2018-07-22T17:19:54.371Z,99675.00
2018-07-22T17:22:23.744Z,99675.00
2018-07-22T17:24:53.197Z,99677.00
2018-07-22T17:27:22.616Z,99677.00
2018-07-22T17:29:52.602Z,99674.00
2018-07-22T17:32:22.073Z,99674.00
2018-07-22T17:34:51.577Z,99676.00
2018-07-22T17:37:21.048Z,99677.00
2018-07-22T17:39:50.586Z,99676.00
2018-07-22T17:42:20.091Z,99677.00
2018-07-22T17:44:49.576Z,99676.00
2018-07-22T17:47:19.013Z,99676.00
2018-07-22T17:49:48.446Z,99680.00
2018-07-22T17:55:22.400Z,99679.00
2018-07-22T17:58:15.907Z,99684.00
2018-07-22T18:00:45.329Z,99684.00
2018-07-22T18:03:28.633Z,99684.00
2018-07-22T18:06:00.059Z,99680.00
2018-07-22T18:08:31.252Z,99683.00
2018-07-22T18:11:01.661Z,99684.00
2018-07-22T18:13:34.925Z,99686.00
2018-07-22T18:16:05.314Z,99688.00
2018-07-22T18:18:34.808Z,99688.00
2018-07-22T18:21:05.460Z,99687.00
2018-07-22T18:23:35.003Z,99686.00
2018-07-22T18:26:09.678Z,99684.00
2018-07-22T18:28:39.273Z,99688.00
2018-07-22T18:31:08.724Z,99688.00
2018-07-22T18:33:38.347Z,99693.00
2018-07-22T18:36:08.071Z,99690.00
2018-07-22T18:38:37.520Z,99698.00
2018-07-22T18:41:18.743Z,99693.00
2018-07-22T18:43:48.946Z,99693.00
2018-07-22T18:46:19.074Z,99698.00
2018-07-22T18:48:48.655Z,99696.00
2018-07-22T18:51:18.508Z,99704.00
2018-07-22T18:53:48.401Z,99705.00
2018-07-22T18:56:18.252Z,99703.00
2018-07-22T18:58:48.197Z,99704.00
2018-07-22T19:01:51.658Z,99716.00
2018-07-22T19:04:23.863Z,99719.00
2018-07-22T19:06:54.216Z,99724.00
2018-07-22T19:09:25.970Z,99726.00
2018-07-22T19:11:59.656Z,99726.00
2018-07-22T19:14:31.842Z,99729.00
2018-07-22T19:17:04.070Z,99735.00
2018-07-22T19:19:36.419Z,99735.00
2018-07-22T19:22:08.508Z,99742.00
2018-07-22T19:24:40.320Z,99744.00
2018-07-22T19:27:14.199Z,99748.00
2018-07-22T19:29:44.962Z,99749.00
2018-07-22T19:32:17.881Z,99753.00
2018-07-22T19:34:47.739Z,99760.00
2018-07-22T19:37:17.934Z,99763.00
2018-07-22T19:39:47.762Z,99771.00
2018-07-22T19:42:18.464Z,99769.00
2018-07-22T19:44:51.447Z,99776.00
2018-07-22T19:47:21.566Z,99780.00
2018-07-22T19:49:51.136Z,99777.00
2018-07-22T19:52:26.604Z,99774.00
2018-07-22T19:54:56.860Z,99774.00
2018-07-22T19:57:26.731Z,99777.00
2018-07-22T19:59:57.101Z,99775.00
2018-07-22T20:02:26.920Z,99783.00
2018-07-22T20:04:56.808Z,99784.00
2018-07-22T20:07:26.854Z,99784.00
2018-07-22T20:09:56.599Z,99788.00
2018-07-22T20:12:26.324Z,99791.00
2018-07-22T20:14:56.121Z,99791.00
2018-07-22T20:17:25.922Z,99793.00
2018-07-22T20:19:55.709Z,99801.00
2018-07-22T20:22:25.443Z,99801.00
2018-07-22T20:24:55.260Z,99803.00
2018-07-22T20:27:24.759Z,99804.00
2018-07-22T20:29:54.249Z,99806.00
2018-07-22T20:32:23.693Z,99805.00
2018-07-22T20:34:53.472Z,99810.00
2018-07-22T20:37:23.499Z,99809.00
2018-07-22T20:39:53.274Z,99812.00
2018-07-22T20:42:23.084Z,99810.00
2018-07-22T20:44:52.633Z,99806.00
2018-07-22T20:47:22.104Z,99816.00
2018-07-22T20:49:51.514Z,99814.00
2018-07-22T20:52:21.030Z,99815.00
2018-07-22T20:54:50.693Z,99809.00
2018-07-22T20:57:20.945Z,99816.00
2018-07-22T20:59:50.423Z,99814.00
2018-07-22T21:02:19.854Z,99812.00
2018-07-22T21:04:49.298Z,99818.00
2018-07-22T21:07:18.753Z,99825.00
2018-07-22T21:09:48.221Z,99819.00
2018-07-22T21:12:59.525Z,99828.00
2018-07-22T21:15:28.978Z,99827.00
2018-07-22T21:17:58.415Z,99826.00
2018-07-22T21:20:27.881Z,99826.00
2018-07-22T21:22:57.319Z,99834.00
2018-07-22T21:25:26.823Z,99834.00
2018-07-22T21:27:56.288Z,99833.00
2018-07-22T21:30:25.715Z,99838.00
2018-07-22T21:32:55.125Z,99836.00
2018-07-22T21:35:24.605Z,99836.00
2018-07-22T21:37:54.141Z,99837.00
2018-07-22T21:40:23.640Z,99842.00
2018-07-22T21:42:53.185Z,99838.00
2018-07-22T21:45:22.651Z,99840.00
2018-07-22T21:47:52.072Z,99840.00
2018-07-22T21:50:21.512Z,99842.00
2018-07-22T21:52:50.974Z,99845.00
2018-07-22T21:55:20.369Z,99842.00
2018-07-22T21:57:49.866Z,99842.00
2018-07-22T22:00:31.495Z,99835.00
2018-07-22T22:03:04.474Z,99840.00
2018-07-22T22:05:33.841Z,99840.00
2018-07-22T22:08:03.280Z,99840.00
2018-07-22T22:10:32.700Z,99840.00
2018-07-22T22:13:02.755Z,99840.00
2018-07-22T22:15:32.795Z,99844.00
2018-07-22T22:18:04.178Z,99849.00
2018-07-22T22:20:33.904Z,99848.00
2018-07-22T22:23:03.306Z,99846.00
2018-07-22T22:25:32.761Z,99848.00
2018-07-22T22:28:02.163Z,99853.00
2018-07-22T22:30:31.664Z,99848.00
2018-07-22T22:33:01.061Z,99846.00
2018-07-22T22:35:30.491Z,99848.00
2018-07-22T22:37:59.885Z,99851.00
2018-07-22T22:40:29.406Z,99852.00
2018-07-22T22:42:59.011Z,99851.00
2018-07-22T22:45:28.376Z,99851.00
2018-07-22T22:47:57.793Z,99851.00
2018-07-22T22:50:26.931Z,99848.00
2018-07-22T22:52:56.421Z,99846.00
2018-07-22T22:55:25.833Z,99850.00
2018-07-22T22:58:12.245Z,99859.00
2018-07-22T23:00:41.688Z,99858.00
2018-07-22T23:03:11.098Z,99853.00
2018-07-22T23:05:40.531Z,99854.00
2018-07-22T23:08:10.035Z,99857.00
2018-07-22T23:10:39.450Z,99855.00
2018-07-22T23:13:08.879Z,99855.00
2018-07-22T23:15:38.244Z,99854.00
2018-07-22T23:18:07.688Z,99854.00
2018-07-22T23:20:37.135Z,99856.00
2018-07-22T23:23:06.630Z,99853.00
2018-07-22T23:25:35.979Z,99850.00
2018-07-22T23:28:05.419Z,99854.00
2018-07-22T23:30:34.968Z,99853.00
2018-07-22T23:33:04.449Z,99861.00
2018-07-22T23:35:33.869Z,99860.00
2018-07-22T23:38:03.258Z,99863.00
2018-07-22T23:40:32.644Z,99861.00
2018-07-22T23:43:02.117Z,99858.00
2018-07-22T23:45:31.454Z,99861.00
2018-07-22T23:48:00.870Z,99860.00
2018-07-22T23:50:30.266Z,99860.00
2018-07-22T23:52:59.644Z,99866.00
2018-07-22T23:55:29.032Z,99870.00
2018-07-22T23:57:58.552Z,99872.00
